createdAt,value
2018-12-23T00:01:28.153Z,101129.45
2018-12-23T00:03:56.736Z,101123.56
2018-12-23T00:06:26.031Z,101129.19
2018-12-23T00:08:55.276Z,101128.22
2018-12-23T00:11:23.090Z,101130.36
2018-12-23T00:13:50.813Z,101143.27
2018-12-23T00:16:18.482Z,101147.31
2018-12-23T00:18:46.100Z,101159.09
2018-12-23T00:21:13.889Z,101159.78
2018-12-23T00:23:41.515Z,101170.73
2018-12-23T00:26:09.175Z,101173.14
2018-12-23T00:28:36.796Z,101179.45
2018-12-23T00:31:05.507Z,101182.78
2018-12-23T00:33:34.072Z,101182.69
2018-12-23T00:36:01.827Z,101186.71
2018-12-23T00:38:30.537Z,101196.81
2018-12-23T00:40:58.237Z,101205.89
2018-12-23T00:43:27.767Z,101205.97
2018-12-23T00:45:56.199Z,101212.48
2018-12-23T00:48:23.826Z,101215.12
2018-12-23T00:50:51.484Z,101215.16
2018-12-23T00:53:19.268Z,101217.59
2018-12-23T00:55:47.059Z,101230.77
2018-12-23T00:58:15.649Z,101234.95
2018-12-23T01:00:43.348Z,101237.92
2018-12-23T01:03:11.158Z,101240.16
2018-12-23T01:05:38.962Z,101243.67
2018-12-23T01:08:06.581Z,101242.31
2018-12-23T01:10:35.165Z,101240.99
2018-12-23T01:13:03.876Z,101244.53
2018-12-23T01:15:32.591Z,101245.12
2018-12-23T01:18:01.312Z,101248.78
2018-12-23T01:20:30.025Z,101244.53
2018-12-23T01:22:57.684Z,101253.05
2018-12-23T01:25:26.190Z,101251.39
2018-12-23T01:27:53.929Z,101258.62
2018-12-23T01:30:22.455Z,101261.25
2018-12-23T01:32:50.110Z,101268.23
2018-12-23T01:35:17.731Z,101273.34
2018-12-23T01:37:45.526Z,101275.48
2018-12-23T01:40:13.330Z,101283.99
2018-12-23T01:42:41.125Z,101284.36
2018-12-23T01:45:08.854Z,101283.95
2018-12-23T01:47:36.488Z,101285.55
2018-12-23T01:50:05.250Z,101286.48
2018-12-23T01:52:32.901Z,101285.55
2018-12-23T01:55:00.691Z,101283.55
2018-12-23T01:57:29.292Z,101288.23
2018-12-23T01:59:57.100Z,101294.71
2018-12-23T02:02:25.286Z,101287.91
2018-12-23T02:04:52.908Z,101292.85
2018-12-23T02:07:21.614Z,101297.54
2018-12-23T02:09:49.234Z,101298.44
2018-12-23T02:12:18.033Z,101298.49
2018-12-23T02:14:45.709Z,101294.79
2018-12-23T02:17:13.335Z,101300.23
2018-12-23T02:19:41.046Z,101311.73
2018-12-23T02:22:08.812Z,101313.02
2018-12-23T02:24:37.424Z,101302.28
2018-12-23T02:27:05.230Z,101296.66
2018-12-23T02:29:33.919Z,101304.01
2018-12-23T02:32:01.749Z,101307.81
2018-12-23T02:34:30.361Z,101309.89
2018-12-23T02:36:58.154Z,101310.70
2018-12-23T02:39:26.899Z,101299.05
2018-12-23T02:41:56.136Z,101302.55
2018-12-23T02:44:25.617Z,101296.14
2018-12-23T02:46:55.026Z,101309.41
2018-12-23T02:49:24.268Z,101322.27
2018-12-23T02:51:52.863Z,101323.55
2018-12-23T02:54:21.471Z,101321.97
2018-12-23T02:56:49.092Z,101323.66
2018-12-23T02:59:16.855Z,101316.81
2018-12-23T03:01:44.645Z,101304.86
2018-12-23T03:04:12.434Z,101312.58
2018-12-23T03:06:40.254Z,101308.67
2018-12-23T03:09:08.074Z,101316.30
2018-12-23T03:11:35.881Z,101316.67
2018-12-23T03:14:03.680Z,101309.27
2018-12-23T03:16:31.488Z,101304.48
2018-12-23T03:18:59.290Z,101315.16
2018-12-23T03:21:27.136Z,101308.30
2018-12-23T03:23:55.381Z,101304.34
2018-12-23T03:26:23.169Z,101305.69
2018-12-23T03:28:51.837Z,101311.70
2018-12-23T03:31:19.583Z,101312.58
2018-12-23T03:33:48.192Z,101308.30
2018-12-23T03:36:16.080Z,101312.14
2018-12-23T03:38:43.873Z,101306.22
2018-12-23T03:41:11.662Z,101298.36
2018-12-23T03:43:40.366Z,101290.64
2018-12-23T03:46:08.135Z,101282.48
2018-12-23T03:48:35.925Z,101280.46
2018-12-23T03:51:03.716Z,101269.35
2018-12-23T03:53:32.428Z,101267.29
2018-12-23T03:56:00.337Z,101257.88
2018-12-23T03:58:28.150Z,101255.77
2018-12-23T04:00:56.868Z,101261.73
2018-12-23T04:03:25.007Z,101260.56
2018-12-23T04:05:53.840Z,101262.75
2018-12-23T04:08:21.593Z,101268.77
2018-12-23T04:10:49.380Z,101266.59
2018-12-23T04:13:17.976Z,101273.11
2018-12-23T04:15:46.569Z,101278.23
2018-12-23T04:18:14.316Z,101276.17
2018-12-23T04:20:42.107Z,101270.19
2018-12-23T04:23:09.795Z,101268.52
2018-12-23T04:25:37.891Z,101271.86
2018-12-23T04:28:06.506Z,101267.50
2018-12-23T04:30:35.045Z,101264.97
2018-12-23T04:33:03.742Z,101264.56
2018-12-23T04:35:32.272Z,101265.46
2018-12-23T04:38:00.886Z,101256.00
2018-12-23T04:40:28.699Z,101258.07
2018-12-23T04:42:57.412Z,101262.42
2018-12-23T04:45:26.996Z,101268.79
2018-12-23T04:47:54.945Z,101267.45
2018-12-23T04:50:23.402Z,101261.86
2018-12-23T04:52:51.044Z,101259.70
2018-12-23T04:55:19.614Z,101255.47
2018-12-23T04:57:47.236Z,101261.88
2018-12-23T05:00:15.801Z,101264.34
2018-12-23T05:02:43.995Z,101272.33
2018-12-23T05:05:12.438Z,101274.91
2018-12-23T05:07:40.064Z,101273.57
2018-12-23T05:10:08.552Z,101274.91
2018-12-23T05:12:37.136Z,101273.13
2018-12-23T05:15:05.399Z,101274.68
2018-12-23T05:17:33.206Z,101269.08
2018-12-23T05:20:01.016Z,101269.59
2018-12-23T05:22:28.817Z,101270.39
2018-12-23T05:24:56.598Z,101269.88
2018-12-23T05:27:25.015Z,101271.16
2018-12-23T05:29:52.802Z,101265.88
2018-12-23T05:32:20.503Z,101271.05
2018-12-23T05:34:48.279Z,101269.43
2018-12-23T05:37:16.005Z,101278.33
2018-12-23T05:39:43.794Z,101284.73
2018-12-23T05:42:11.585Z,101271.93
2018-12-23T05:44:39.376Z,101267.50
2018-12-23T05:47:07.997Z,101265.74
2018-12-23T05:49:36.707Z,101265.20
2018-12-23T05:52:04.511Z,101267.32
2018-12-23T05:54:32.321Z,101268.58
2018-12-23T05:57:00.234Z,101274.75
2018-12-23T05:59:28.845Z,101274.69
2018-12-23T06:01:57.256Z,101270.76
2018-12-23T06:04:26.909Z,101277.78
2018-12-23T06:07:00.964Z,101265.24
2018-12-23T06:09:26.719Z,101277.22
2018-12-23T06:11:56.438Z,101279.33
2018-12-23T06:14:25.518Z,101278.86
2018-12-23T06:16:53.303Z,101276.34
2018-12-23T06:19:21.093Z,101277.56
2018-12-23T06:21:48.906Z,101287.43
2018-12-23T06:24:16.695Z,101279.59
2018-12-23T06:26:44.499Z,101285.54
2018-12-23T06:29:12.188Z,101279.96
2018-12-23T06:31:39.906Z,101284.22
2018-12-23T06:34:07.608Z,101283.67
2018-12-23T06:36:36.197Z,101277.66
2018-12-23T06:39:05.459Z,101280.65
2018-12-23T06:41:33.210Z,101278.58
2018-12-23T06:44:01.010Z,101270.81
2018-12-23T06:46:28.800Z,101272.96
2018-12-23T06:48:56.512Z,101270.81
2018-12-23T06:51:24.903Z,101270.84
2018-12-23T06:53:53.593Z,101272.89
2018-12-23T06:56:21.423Z,101263.75
2018-12-23T06:58:50.000Z,101259.97
2018-12-23T07:01:17.830Z,101260.37
2018-12-23T07:03:45.619Z,101265.11
2018-12-23T07:06:13.305Z,101268.95
2018-12-23T07:08:41.016Z,101267.79
2018-12-23T07:11:08.782Z,101263.70
2018-12-23T07:13:36.583Z,101263.80
2018-12-23T07:16:04.443Z,101259.60
2018-12-23T07:18:32.280Z,101265.20
2018-12-23T07:21:00.070Z,101261.72
2018-12-23T07:23:27.769Z,101259.92
2018-12-23T07:25:56.402Z,101246.21
2018-12-23T07:28:24.369Z,101247.88
2018-12-23T07:30:52.084Z,101247.44
2018-12-23T07:33:19.804Z,101242.34
2018-12-23T07:35:47.577Z,101254.11
2018-12-23T07:38:15.380Z,101251.91
2018-12-23T07:40:44.095Z,101257.46
2018-12-23T07:43:11.887Z,101253.61
2018-12-23T07:45:39.683Z,101244.54
2018-12-23T07:48:07.495Z,101252.32
2018-12-23T07:50:36.167Z,101260.55
2018-12-23T07:53:03.985Z,101256.23
2018-12-23T07:55:31.810Z,101253.99
2018-12-23T07:57:59.508Z,101250.02
2018-12-23T08:00:27.314Z,101250.20
2018-12-23T08:02:55.114Z,101261.64
2018-12-23T08:05:23.825Z,101266.70
2018-12-23T08:07:52.537Z,101269.32
2018-12-23T08:10:20.355Z,101270.88
2018-12-23T08:12:48.148Z,101272.10
2018-12-23T08:15:15.950Z,101271.73
2018-12-23T08:17:44.483Z,101266.12
2018-12-23T08:20:12.286Z,101273.21
2018-12-23T08:22:40.086Z,101274.14
2018-12-23T08:25:07.892Z,101267.33
2018-12-23T08:27:35.695Z,101265.19
2018-12-23T08:30:03.741Z,101267.13
2018-12-23T08:32:31.480Z,101269.28
2018-12-23T08:34:59.167Z,101269.27
2018-12-23T08:37:26.883Z,101264.51
2018-12-23T08:39:55.065Z,101265.76
2018-12-23T08:42:22.852Z,101265.88
2018-12-23T08:44:50.642Z,101273.84
2018-12-23T08:47:18.447Z,101265.23
2018-12-23T08:49:46.238Z,101269.96
2018-12-23T08:52:14.027Z,101272.19
2018-12-23T08:54:41.931Z,101273.44
2018-12-23T08:57:10.642Z,101276.35
2018-12-23T08:59:38.440Z,101279.22
2018-12-23T09:02:06.251Z,101279.58
2018-12-23T09:04:34.036Z,101279.95
2018-12-23T09:07:01.829Z,101282.86
2018-12-23T09:09:29.616Z,101277.59
2018-12-23T09:11:57.236Z,101278.44
2018-12-23T09:14:24.906Z,101282.10
2018-12-23T09:16:52.713Z,101272.68
2018-12-23T09:19:20.332Z,101279.55
2018-12-23T09:21:47.970Z,101274.33
2018-12-23T09:24:15.697Z,101280.63
2018-12-23T09:26:44.164Z,101274.69
2018-12-23T09:29:11.852Z,101274.73
2018-12-23T09:31:39.464Z,101271.69
2018-12-23T09:34:07.095Z,101268.17
2018-12-23T09:36:34.700Z,101282.59
2018-12-23T09:39:02.328Z,101277.85
2018-12-23T09:41:29.946Z,101269.00
2018-12-23T09:43:58.529Z,101263.66
2018-12-23T09:46:27.075Z,101265.52
2018-12-23T09:48:55.152Z,101248.91
2018-12-23T09:51:22.966Z,101249.64
2018-12-23T09:53:50.752Z,101243.86
2018-12-23T09:56:18.545Z,101241.64
2018-12-23T09:58:46.336Z,101244.03
2018-12-23T10:01:14.126Z,101244.03
2018-12-23T10:03:41.916Z,101246.53
2018-12-23T10:06:09.713Z,101241.47
2018-12-23T10:08:38.418Z,101240.62
2018-12-23T10:11:06.209Z,101235.20
2018-12-23T10:13:33.950Z,101236.87
2018-12-23T10:16:01.620Z,101224.72
2018-12-23T10:18:29.352Z,101216.37
2018-12-23T10:20:56.976Z,101216.47
2018-12-23T10:23:24.936Z,101216.35
2018-12-23T10:25:52.562Z,101207.05
2018-12-23T10:28:20.173Z,101211.45
2018-12-23T10:30:48.719Z,101208.74
2018-12-23T10:33:17.232Z,101213.75
2018-12-23T10:35:44.874Z,101201.81
2018-12-23T10:38:18.333Z,101194.64
2018-12-23T10:40:43.027Z,101207.59
2018-12-23T10:43:10.718Z,101200.17
2018-12-23T10:45:38.340Z,101197.68
2018-12-23T10:48:05.962Z,101189.33
2018-12-23T10:50:34.502Z,101192.50
2018-12-23T10:53:02.117Z,101195.11
2018-12-23T10:55:29.732Z,101181.63
2018-12-23T10:57:57.348Z,101178.76
2018-12-23T11:00:24.967Z,101172.21
2018-12-23T11:02:52.589Z,101178.25
2018-12-23T11:05:20.225Z,101165.55
2018-12-23T11:07:48.772Z,101167.54
2018-12-23T11:10:16.421Z,101161.22
2018-12-23T11:12:45.048Z,101166.58
2018-12-23T11:15:12.801Z,101172.09
2018-12-23T11:17:40.590Z,101154.66
2018-12-23T11:20:09.254Z,101165.03
2018-12-23T11:22:36.877Z,101156.52
2018-12-23T11:25:04.818Z,101155.16
2018-12-23T11:27:32.449Z,101149.91
2018-12-23T11:30:00.102Z,101153.27
2018-12-23T11:32:28.835Z,101151.00
2018-12-23T11:34:56.541Z,101138.00
2018-12-23T11:37:25.060Z,101137.25
2018-12-23T11:39:52.860Z,101138.98
2018-12-23T11:42:20.667Z,101135.50
2018-12-23T11:44:48.320Z,101124.63
2018-12-23T11:47:15.959Z,101128.73
2018-12-23T11:49:43.585Z,101121.80
2018-12-23T11:52:11.244Z,101124.11
2018-12-23T11:54:38.953Z,101124.77
2018-12-23T11:57:06.713Z,101123.92
2018-12-23T11:59:34.450Z,101119.19
2018-12-23T12:02:02.229Z,101107.52
2018-12-23T12:04:30.675Z,101109.55
2018-12-23T12:06:58.296Z,101114.16
2018-12-23T12:09:26.141Z,101107.62
2018-12-23T12:11:55.762Z,101111.27
2018-12-23T12:14:24.678Z,101107.38
2018-12-23T12:16:53.240Z,101105.20
2018-12-23T12:19:20.855Z,101097.64
2018-12-23T12:21:48.468Z,101103.73
2018-12-23T12:24:16.130Z,101106.88
2018-12-23T12:26:43.744Z,101102.28
2018-12-23T12:29:11.440Z,101098.47
2018-12-23T12:31:39.059Z,101088.75
2018-12-23T12:34:06.691Z,101089.51
2018-12-23T12:36:34.310Z,101067.91
2018-12-23T12:39:01.937Z,101068.67
2018-12-23T12:41:30.362Z,101074.02
2018-12-23T12:43:57.985Z,101074.36
2018-12-23T12:46:26.461Z,101073.79
2018-12-23T12:48:54.713Z,101070.55
2018-12-23T12:51:22.332Z,101076.70
2018-12-23T12:54:26.214Z,101076.65
2018-12-23T12:56:57.715Z,101074.30
2018-12-23T12:59:29.305Z,101077.63
2018-12-23T13:01:57.968Z,101083.10
2018-12-23T13:04:26.973Z,101077.19
2018-12-23T13:06:55.624Z,101074.88
2018-12-23T13:09:24.644Z,101069.62
2018-12-23T13:11:53.303Z,101073.23
2018-12-23T13:14:21.993Z,101062.31
2018-12-23T13:16:53.322Z,101058.77
2018-12-23T13:19:22.018Z,101053.41
2018-12-23T13:21:50.665Z,101053.64
2018-12-23T13:24:19.361Z,101046.87
2018-12-23T13:26:48.017Z,101042.94
2018-12-23T13:29:16.824Z,101051.34
2018-12-23T13:31:45.479Z,101045.69
2018-12-23T13:34:16.897Z,101037.11
2018-12-23T13:36:45.974Z,101037.11
2018-12-23T13:39:14.993Z,101041.30
2018-12-23T13:41:49.761Z,101038.25
2018-12-23T13:44:30.708Z,101032.84
2018-12-23T13:47:05.477Z,101031.99
2018-12-23T13:49:39.812Z,101031.93
2018-12-23T13:52:32.573Z,101026.66
2018-12-23T13:55:19.338Z,101024.80
2018-12-23T13:57:56.940Z,101023.16
2018-12-23T14:00:43.768Z,101024.23
2018-12-23T14:03:27.753Z,101022.53
2018-12-23T14:06:18.944Z,101031.20
2018-12-23T14:09:02.592Z,101031.05
2018-12-23T14:11:59.008Z,101027.55
2018-12-23T14:14:27.772Z,101020.34
2018-12-23T14:16:59.229Z,101022.70
2018-12-23T14:19:27.926Z,101015.84
2018-12-23T14:21:59.550Z,101024.80
2018-12-23T14:24:28.208Z,101016.16
2018-12-23T14:26:59.555Z,101006.55
2018-12-23T14:29:28.194Z,101000.17
2018-12-23T14:31:57.441Z,100998.55
2018-12-23T14:34:26.175Z,100993.77
2018-12-23T14:36:56.477Z,100999.67
2018-12-23T14:39:28.195Z,100985.30
2018-12-23T14:41:55.627Z,100997.46
2018-12-23T14:44:27.484Z,100993.07
2018-12-23T14:46:56.138Z,100985.53
2018-12-23T14:49:26.544Z,100987.38
2018-12-23T14:52:01.005Z,100991.99
2018-12-23T14:54:29.667Z,100997.38
2018-12-23T14:56:58.319Z,100998.66
2018-12-23T14:59:30.153Z,100993.30
2018-12-23T15:01:58.803Z,100996.73
2018-12-23T15:04:27.471Z,100991.16
2018-12-23T15:06:58.882Z,100993.28
2018-12-23T15:09:34.260Z,100986.94
2018-12-23T15:11:57.948Z,100983.44
2018-12-23T15:14:29.344Z,100993.22
2018-12-23T15:16:58.000Z,100990.38
2018-12-23T15:19:29.697Z,100983.20
2018-12-23T15:21:58.344Z,100988.32
2018-12-23T15:24:30.325Z,100990.31
2018-12-23T15:27:01.951Z,100981.31
2018-12-23T15:29:30.935Z,100975.17
2018-12-23T15:31:59.603Z,100972.08
2018-12-23T15:34:28.411Z,100970.23
2018-12-23T15:36:57.074Z,100959.50
2018-12-23T15:39:28.701Z,100964.08
2018-12-23T15:41:57.359Z,100965.68
2018-12-23T15:44:28.975Z,100960.41
2018-12-23T15:46:57.639Z,100946.33
2018-12-23T15:49:29.340Z,100952.86
2018-12-23T15:52:00.733Z,100958.83
2018-12-23T15:54:32.312Z,100949.27
2018-12-23T15:57:01.126Z,100940.42
2018-12-23T15:59:29.778Z,100922.65
2018-12-23T16:01:58.444Z,100922.65
2018-12-23T16:04:30.205Z,100927.54
2018-12-23T16:06:58.870Z,100927.54
2018-12-23T16:09:30.244Z,100916.75
2018-12-23T16:12:01.698Z,100915.86
2018-12-23T16:14:33.486Z,100916.38
2018-12-23T16:17:05.323Z,100907.81
2018-12-23T16:19:33.982Z,100901.81
2018-12-23T16:22:03.427Z,100898.77
2018-12-23T16:24:35.061Z,100898.78
2018-12-23T16:27:03.757Z,100892.77
2018-12-23T16:29:35.434Z,100898.37
2018-12-23T16:32:07.126Z,100893.70
2018-12-23T16:34:35.776Z,100888.44
2018-12-23T16:37:07.113Z,100893.16
2018-12-23T16:39:35.774Z,100889.66
2018-12-23T16:42:07.422Z,100894.45
2018-12-23T16:44:36.375Z,100895.41
2018-12-23T16:47:05.031Z,100900.31
2018-12-23T16:49:33.674Z,100900.30
2018-12-23T16:52:02.325Z,100891.71
2018-12-23T16:54:30.979Z,100892.36
2018-12-23T16:56:59.789Z,100895.58
2018-12-23T16:59:28.502Z,100891.40
2018-12-23T17:01:57.212Z,100882.02
2018-12-23T17:04:28.691Z,100884.05
2018-12-23T17:07:00.063Z,100879.17
2018-12-23T17:09:28.719Z,100871.81
2018-12-23T17:11:57.384Z,100877.73
2018-12-23T17:14:28.938Z,100869.97
2018-12-23T17:16:57.601Z,100877.29
2018-12-23T17:19:26.279Z,100876.33
2018-12-23T17:21:57.577Z,100873.59
2018-12-23T17:24:26.563Z,100868.08
2018-12-23T17:26:58.336Z,100863.66
2018-12-23T17:29:27.508Z,100857.19
2018-12-23T17:31:59.567Z,100861.41
2018-12-23T17:34:31.109Z,100856.08
2018-12-23T17:37:02.797Z,100851.80
2018-12-23T17:39:34.420Z,100846.39
2018-12-23T17:42:06.522Z,100851.00
2018-12-23T17:44:38.163Z,100839.36
2018-12-23T17:47:09.791Z,100840.05
2018-12-23T17:49:41.186Z,100839.72
2018-12-23T17:52:13.040Z,100843.36
2018-12-23T17:54:44.664Z,100839.16
2018-12-23T17:57:13.316Z,100837.85
2018-12-23T17:59:44.717Z,100840.50
2018-12-23T18:02:13.377Z,100849.83
2018-12-23T18:04:42.037Z,100841.06
2018-12-23T18:07:13.440Z,100842.80
2018-12-23T18:09:42.099Z,100838.03
2018-12-23T18:12:14.175Z,100833.81
2018-12-23T18:14:45.589Z,100833.70
2018-12-23T18:17:14.212Z,100835.48
2018-12-23T18:19:42.865Z,100837.29
2018-12-23T18:22:11.910Z,100828.70
2018-12-23T18:24:43.486Z,100823.06
2018-12-23T18:27:12.148Z,100819.25
2018-12-23T18:29:40.841Z,100810.59
2018-12-23T18:32:12.511Z,100815.03
2018-12-23T18:34:44.207Z,100811.15
2018-12-23T18:37:15.973Z,100816.66
2018-12-23T18:39:47.304Z,100812.22
2018-12-23T18:42:15.996Z,100798.44
2018-12-23T18:44:47.955Z,100796.74
2018-12-23T18:47:19.586Z,100800.51
2018-12-23T18:49:48.260Z,100802.09
2018-12-23T18:52:16.931Z,100804.50
2018-12-23T18:54:45.588Z,100801.47
2018-12-23T18:57:14.257Z,100800.73
2018-12-23T18:59:42.924Z,100795.38
2018-12-23T19:02:11.593Z,100802.07
2018-12-23T19:04:40.653Z,100793.13
2018-12-23T19:07:09.325Z,100791.22
2018-12-23T19:09:38.627Z,100793.97
2018-12-23T19:12:34.616Z,100794.95
2018-12-23T19:15:18.028Z,100793.59
2018-12-23T19:18:11.240Z,100794.09
2018-12-23T19:20:46.210Z,100781.78
2018-12-23T19:23:39.280Z,100784.59
2018-12-23T19:26:13.738Z,100777.79
2018-12-23T19:28:51.297Z,100776.56
2018-12-23T19:31:41.109Z,100775.65
2018-12-23T19:34:33.860Z,100769.85
2018-12-23T19:37:25.130Z,100769.74
2018-12-23T19:40:14.798Z,100756.94
2018-12-23T19:42:58.456Z,100754.41
2018-12-23T19:45:38.749Z,100748.16
2018-12-23T19:48:19.423Z,100762.43
2018-12-23T19:50:57.317Z,100753.48
2018-12-23T19:53:43.965Z,100743.88
2018-12-23T19:56:27.892Z,100735.06
2018-12-23T19:59:17.637Z,100742.09
2018-12-23T20:01:57.970Z,100743.90
2018-12-23T20:04:52.247Z,100753.72
2018-12-23T20:07:26.015Z,100753.28
2018-12-23T20:10:15.764Z,100744.95
2018-12-23T20:13:04.062Z,100739.44
2018-12-23T20:15:58.761Z,100741.58
2018-12-23T20:18:56.661Z,100751.87
2018-12-23T20:21:40.219Z,100747.20
2018-12-23T20:24:45.921Z,100755.86
2018-12-23T20:27:18.009Z,100745.84
2018-12-23T20:30:13.792Z,100754.91
2018-12-23T20:33:19.126Z,100746.69
2018-12-23T20:35:54.646Z,100744.12
2018-12-23T20:38:48.650Z,100745.63
2018-12-23T20:41:42.906Z,100746.38
2018-12-23T20:44:20.373Z,100744.22
2018-12-23T20:47:10.044Z,100748.11
2018-12-23T20:49:44.364Z,100745.45
2018-12-23T20:52:37.050Z,100750.75
2018-12-23T20:55:28.199Z,100740.73
2018-12-23T20:58:33.205Z,100741.25
2018-12-23T21:01:38.443Z,100729.05
2018-12-23T21:04:45.540Z,100728.94
2018-12-23T21:07:32.202Z,100734.96
2018-12-23T21:10:15.964Z,100725.16
2018-12-23T21:12:56.708Z,100727.86
2018-12-23T21:15:44.759Z,100726.36
2018-12-23T21:18:33.206Z,100714.38
2018-12-23T21:21:16.718Z,100713.31
2018-12-23T21:23:51.056Z,100709.42
2018-12-23T21:26:37.707Z,100711.80
2018-12-23T21:29:28.899Z,100708.35
2018-12-23T21:32:33.400Z,100699.81
2018-12-23T21:35:26.174Z,100697.58
2018-12-23T21:38:12.345Z,100704.72
2018-12-23T21:41:00.153Z,100700.61
2018-12-23T21:43:54.756Z,100694.87
2018-12-23T21:46:43.112Z,100703.61
2018-12-23T21:49:29.983Z,100700.55
2018-12-23T21:52:14.012Z,100696.96
2018-12-23T21:54:45.771Z,100698.65
2018-12-23T21:57:37.219Z,100692.88
2018-12-23T22:00:20.980Z,100692.75
2018-12-23T22:03:12.383Z,100705.09
2018-12-23T22:06:08.390Z,100706.11
2018-12-23T22:08:49.345Z,100703.31
2018-12-23T22:11:32.934Z,100701.48
2018-12-23T22:13:55.616Z,100694.04
2018-12-23T22:16:25.271Z,100700.29
2018-12-23T22:18:55.883Z,100689.72
2018-12-23T22:21:25.691Z,100686.72
2018-12-23T22:23:57.075Z,100691.10
2018-12-23T22:26:26.141Z,100694.10
2018-12-23T22:28:56.536Z,100684.84
2018-12-23T22:31:27.916Z,100683.89
2018-12-23T22:33:56.779Z,100681.40
2018-12-23T22:36:25.449Z,100686.14
2018-12-23T22:38:54.456Z,100682.76
2018-12-23T22:41:26.014Z,100685.92
2018-12-23T22:43:56.774Z,100691.73
2018-12-23T22:46:25.432Z,100692.80
2018-12-23T22:48:56.289Z,100696.35
2018-12-23T22:51:28.124Z,100700.89
2018-12-23T22:53:59.571Z,100694.22
2018-12-23T22:56:28.230Z,100690.16
2018-12-23T22:58:57.243Z,100682.45
2018-12-23T23:01:31.872Z,100684.37
2018-12-23T23:04:03.541Z,100681.20
2018-12-23T23:06:34.960Z,100687.52
2018-12-23T23:09:07.676Z,100684.63
2018-12-23T23:11:36.332Z,100687.91
2018-12-23T23:14:07.834Z,100679.58
2018-12-23T23:16:36.496Z,100681.95
2018-12-23T23:19:07.884Z,100686.39
2018-12-23T23:21:37.375Z,100683.23
2018-12-23T23:24:08.718Z,100684.87
2018-12-23T23:26:37.384Z,100689.70
2018-12-23T23:29:08.983Z,100685.89
2018-12-23T23:31:40.601Z,100684.63
2018-12-23T23:34:11.984Z,100679.33
2018-12-23T23:36:43.483Z,100686.57
2018-12-23T23:39:15.068Z,100684.55
2018-12-23T23:41:46.669Z,100683.19
2018-12-23T23:44:18.476Z,100690.03
2018-12-23T23:46:50.100Z,100687.32
2018-12-23T23:49:21.710Z,100693.16
2018-12-23T23:51:53.187Z,100684.39
2018-12-23T23:54:26.893Z,100686.57
2018-12-23T23:56:55.906Z,100690.83
2018-12-23T23:59:27.518Z,100694.16
